sensor_id;sensor_type;location;lat;lon;timestamp;P1;durP1;ratioP1;P2;durP2;ratioP2
36441;SDS011;64346;50.820;16.274;2023-02-28T00:01:27;37.20;;;17.98;;
36441;SDS011;64346;50.820;16.274;2023-02-28T00:03:55;105.47;;;53.85;;
36441;SDS011;64346;50.820;16.274;2023-02-28T00:06:22;134.88;;;69.20;;
36441;SDS011;64346;50.820;16.274;2023-02-28T00:08:51;103.00;;;53.65;;
36441;SDS011;64346;50.820;16.274;2023-02-28T00:11:19;42.15;;;22.83;;
36441;SDS011;64346;50.820;16.274;2023-02-28T00:13:49;31.75;;;16.95;;
36441;SDS011;64346;50.820;16.274;2023-02-28T00:16:20;30.13;;;15.68;;
36441;SDS011;64346;50.820;16.274;2023-02-28T00:18:49;25.40;;;12.67;;
36441;SDS011;64346;50.820;16.274;2023-02-28T00:21:19;29.00;;;14.80;;
36441;SDS011;64346;50.820;16.274;2023-02-28T00:23:47;35.30;;;17.02;;
36441;SDS011;64346;50.820;16.274;2023-02-28T00:26:17;34.53;;;17.65;;
36441;SDS011;64346;50.820;16.274;2023-02-28T00:28:47;80.25;;;37.63;;
36441;SDS011;64346;50.820;16.274;2023-02-28T00:31:14;73.53;;;35.95;;
36441;SDS011;64346;50.820;16.274;2023-02-28T00:33:42;42.13;;;21.83;;
36441;SDS011;64346;50.820;16.274;2023-02-28T00:36:10;39.03;;;19.25;;
36441;SDS011;64346;50.820;16.274;2023-02-28T00:38:40;41.47;;;20.67;;
36441;SDS011;64346;50.820;16.274;2023-02-28T00:41:07;42.40;;;21.73;;
36441;SDS011;64346;50.820;16.274;2023-02-28T00:43:36;43.17;;;21.05;;
36441;SDS011;64346;50.820;16.274;2023-02-28T00:46:06;46.88;;;22.15;;
36441;SDS011;64346;50.820;16.274;2023-02-28T00:48:37;40.38;;;20.65;;
36441;SDS011;64346;50.820;16.274;2023-02-28T00:51:06;39.97;;;20.42;;
36441;SDS011;64346;50.820;16.274;2023-02-28T00:53:36;36.03;;;18.73;;
36441;SDS011;64346;50.820;16.274;2023-02-28T00:56:05;39.85;;;20.70;;
36441;SDS011;64346;50.820;16.274;2023-02-28T00:58:35;40.10;;;19.60;;
36441;SDS011;64346;50.820;16.274;2023-02-28T01:01:04;39.00;;;19.73;;
36441;SDS011;64346;50.820;16.274;2023-02-28T01:03:35;38.83;;;18.83;;
36441;SDS011;64346;50.820;16.274;2023-02-28T01:06:02;38.92;;;18.45;;
36441;SDS011;64346;50.820;16.274;2023-02-28T01:08:29;43.05;;;20.48;;
36441;SDS011;64346;50.820;16.274;2023-02-28T01:11:06;38.00;;;19.10;;
36441;SDS011;64346;50.820;16.274;2023-02-28T01:13:38;35.78;;;18.30;;
36441;SDS011;64346;50.820;16.274;2023-02-28T01:16:08;41.92;;;18.73;;
36441;SDS011;64346;50.820;16.274;2023-02-28T01:18:35;38.85;;;18.30;;
36441;SDS011;64346;50.820;16.274;2023-02-28T01:21:06;39.42;;;19.65;;
36441;SDS011;64346;50.820;16.274;2023-02-28T01:23:39;39.35;;;19.80;;
36441;SDS011;64346;50.820;16.274;2023-02-28T01:26:19;42.55;;;20.17;;
36441;SDS011;64346;50.820;16.274;2023-02-28T01:28:48;37.45;;;19.48;;
36441;SDS011;64346;50.820;16.274;2023-02-28T01:31:17;40.17;;;20.55;;
36441;SDS011;64346;50.820;16.274;2023-02-28T01:33:45;39.90;;;20.15;;
36441;SDS011;64346;50.820;16.274;2023-02-28T01:36:23;40.78;;;19.58;;
36441;SDS011;64346;50.820;16.274;2023-02-28T01:38:51;38.85;;;18.55;;
36441;SDS011;64346;50.820;16.274;2023-02-28T01:43:58;42.28;;;21.13;;
36441;SDS011;64346;50.820;16.274;2023-02-28T01:46:28;37.00;;;18.25;;
36441;SDS011;64346;50.820;16.274;2023-02-28T01:49:15;40.30;;;18.50;;
36441;SDS011;64346;50.820;16.274;2023-02-28T01:51:45;41.67;;;20.50;;
36441;SDS011;64346;50.820;16.274;2023-02-28T01:54:33;38.30;;;18.08;;
36441;SDS011;64346;50.820;16.274;2023-02-28T01:57:03;36.95;;;18.05;;
36441;SDS011;64346;50.820;16.274;2023-02-28T02:02:20;46.05;;;22.15;;
36441;SDS011;64346;50.820;16.274;2023-02-28T02:04:51;42.78;;;20.52;;
36441;SDS011;64346;50.820;16.274;2023-02-28T02:07:29;45.47;;;23.30;;
36441;SDS011;64346;50.820;16.274;2023-02-28T02:10:05;44.50;;;20.70;;
36441;SDS011;64346;50.820;16.274;2023-02-28T02:12:54;43.90;;;21.58;;
36441;SDS011;64346;50.820;16.274;2023-02-28T02:15:33;47.33;;;21.65;;
36441;SDS011;64346;50.820;16.274;2023-02-28T02:18:04;48.50;;;23.17;;
36441;SDS011;64346;50.820;16.274;2023-02-28T02:33:05;46.42;;;23.30;;
36441;SDS011;64346;50.820;16.274;2023-02-28T02:38:31;47.58;;;24.58;;
36441;SDS011;64346;50.820;16.274;2023-02-28T02:41:14;50.05;;;23.58;;
36441;SDS011;64346;50.820;16.274;2023-02-28T02:44:41;51.20;;;24.73;;
36441;SDS011;64346;50.820;16.274;2023-02-28T02:47:08;44.95;;;21.90;;
36441;SDS011;64346;50.820;16.274;2023-02-28T02:49:49;51.65;;;24.75;;
36441;SDS011;64346;50.820;16.274;2023-02-28T02:52:25;48.20;;;23.13;;
36441;SDS011;64346;50.820;16.274;2023-02-28T02:55:00;52.00;;;25.58;;
36441;SDS011;64346;50.820;16.274;2023-02-28T02:57:32;52.03;;;24.90;;
36441;SDS011;64346;50.820;16.274;2023-02-28T03:00:06;49.58;;;24.75;;
36441;SDS011;64346;50.820;16.274;2023-02-28T03:02:37;54.72;;;25.73;;
36441;SDS011;64346;50.820;16.274;2023-02-28T03:05:08;50.30;;;24.30;;
36441;SDS011;64346;50.820;16.274;2023-02-28T03:07:51;51.17;;;24.58;;
36441;SDS011;64346;50.820;16.274;2023-02-28T03:10:32;47.72;;;23.67;;
36441;SDS011;64346;50.820;16.274;2023-02-28T03:16:10;44.78;;;21.83;;
36441;SDS011;64346;50.820;16.274;2023-02-28T03:19:04;46.50;;;22.73;;
36441;SDS011;64346;50.820;16.274;2023-02-28T03:24:40;45.22;;;23.58;;
36441;SDS011;64346;50.820;16.274;2023-02-28T03:27:54;46.25;;;22.38;;
36441;SDS011;64346;50.820;16.274;2023-02-28T03:32:39;42.78;;;22.17;;
36441;SDS011;64346;50.820;16.274;2023-02-28T03:35:25;41.88;;;20.92;;
36441;SDS011;64346;50.820;16.274;2023-02-28T03:38:01;45.30;;;22.17;;
36441;SDS011;64346;50.820;16.274;2023-02-28T03:40:35;43.63;;;21.42;;
36441;SDS011;64346;50.820;16.274;2023-02-28T03:43:10;44.20;;;21.27;;
36441;SDS011;64346;50.820;16.274;2023-02-28T03:45:44;45.38;;;22.98;;
36441;SDS011;64346;50.820;16.274;2023-02-28T03:50:51;42.80;;;22.40;;
36441;SDS011;64346;50.820;16.274;2023-02-28T03:53:25;45.05;;;22.45;;
36441;SDS011;64346;50.820;16.274;2023-02-28T04:01:43;50.15;;;24.15;;
36441;SDS011;64346;50.820;16.274;2023-02-28T04:04:13;48.45;;;24.27;;
36441;SDS011;64346;50.820;16.274;2023-02-28T04:06:44;46.55;;;23.60;;
36441;SDS011;64346;50.820;16.274;2023-02-28T04:09:13;43.08;;;23.33;;
36441;SDS011;64346;50.820;16.274;2023-02-28T04:11:45;48.05;;;23.08;;
36441;SDS011;64346;50.820;16.274;2023-02-28T04:14:19;42.45;;;21.05;;
36441;SDS011;64346;50.820;16.274;2023-02-28T04:16:46;42.05;;;22.42;;
36441;SDS011;64346;50.820;16.274;2023-02-28T04:19:16;40.65;;;21.98;;
36441;SDS011;64346;50.820;16.274;2023-02-28T04:21:44;45.03;;;21.63;;
36441;SDS011;64346;50.820;16.274;2023-02-28T04:24:15;40.50;;;20.98;;
36441;SDS011;64346;50.820;16.274;2023-02-28T04:26:56;43.50;;;20.52;;
36441;SDS011;64346;50.820;16.274;2023-02-28T04:29:26;43.83;;;21.20;;
36441;SDS011;64346;50.820;16.274;2023-02-28T04:32:00;43.45;;;21.58;;
36441;SDS011;64346;50.820;16.274;2023-02-28T04:34:29;43.65;;;22.00;;
36441;SDS011;64346;50.820;16.274;2023-02-28T04:37:00;44.50;;;21.80;;
36441;SDS011;64346;50.820;16.274;2023-02-28T04:39:43;46.83;;;22.23;;
36441;SDS011;64346;50.820;16.274;2023-02-28T04:42:14;39.83;;;20.77;;
36441;SDS011;64346;50.820;16.274;2023-02-28T04:44:42;40.67;;;20.63;;
36441;SDS011;64346;50.820;16.274;2023-02-28T04:47:09;43.67;;;20.92;;
36441;SDS011;64346;50.820;16.274;2023-02-28T04:49:39;38.45;;;19.73;;
36441;SDS011;64346;50.820;16.274;2023-02-28T04:52:08;42.05;;;21.77;;
36441;SDS011;64346;50.820;16.274;2023-02-28T04:54:36;45.03;;;21.77;;
36441;SDS011;64346;50.820;16.274;2023-02-28T04:57:03;33.40;;;18.13;;
36441;SDS011;64346;50.820;16.274;2023-02-28T04:59:33;35.72;;;19.17;;
36441;SDS011;64346;50.820;16.274;2023-02-28T05:02:00;41.47;;;21.33;;
36441;SDS011;64346;50.820;16.274;2023-02-28T05:04:27;40.83;;;20.98;;
36441;SDS011;64346;50.820;16.274;2023-02-28T05:06:55;37.47;;;20.08;;
36441;SDS011;64346;50.820;16.274;2023-02-28T05:09:22;36.00;;;17.40;;
36441;SDS011;64346;50.820;16.274;2023-02-28T05:11:49;36.83;;;19.98;;
36441;SDS011;64346;50.820;16.274;2023-02-28T05:14:21;42.50;;;21.00;;
36441;SDS011;64346;50.820;16.274;2023-02-28T05:16:48;39.78;;;20.48;;
36441;SDS011;64346;50.820;16.274;2023-02-28T05:19:16;40.88;;;21.00;;
36441;SDS011;64346;50.820;16.274;2023-02-28T05:21:50;40.97;;;19.13;;
36441;SDS011;64346;50.820;16.274;2023-02-28T05:24:20;38.65;;;20.35;;
36441;SDS011;64346;50.820;16.274;2023-02-28T05:26:47;40.40;;;21.88;;
36441;SDS011;64346;50.820;16.274;2023-02-28T05:29:15;42.13;;;20.75;;
36441;SDS011;64346;50.820;16.274;2023-02-28T05:31:47;41.45;;;21.33;;
36441;SDS011;64346;50.820;16.274;2023-02-28T05:34:15;42.83;;;21.50;;
36441;SDS011;64346;50.820;16.274;2023-02-28T05:36:42;42.30;;;23.40;;
36441;SDS011;64346;50.820;16.274;2023-02-28T05:39:12;44.25;;;22.42;;
36441;SDS011;64346;50.820;16.274;2023-02-28T05:41:40;47.80;;;23.52;;
36441;SDS011;64346;50.820;16.274;2023-02-28T05:44:10;69.57;;;30.83;;
36441;SDS011;64346;50.820;16.274;2023-02-28T05:46:38;71.45;;;32.47;;
36441;SDS011;64346;50.820;16.274;2023-02-28T05:49:07;74.90;;;34.70;;
36441;SDS011;64346;50.820;16.274;2023-02-28T05:51:37;63.63;;;31.75;;
36441;SDS011;64346;50.820;16.274;2023-02-28T05:54:05;54.20;;;28.40;;
36441;SDS011;64346;50.820;16.274;2023-02-28T05:56:32;60.03;;;29.40;;
36441;SDS011;64346;50.820;16.274;2023-02-28T05:59:00;54.25;;;27.70;;
36441;SDS011;64346;50.820;16.274;2023-02-28T06:01:32;48.28;;;25.08;;
36441;SDS011;64346;50.820;16.274;2023-02-28T06:04:03;45.05;;;22.13;;
36441;SDS011;64346;50.820;16.274;2023-02-28T06:06:32;43.33;;;21.67;;
36441;SDS011;64346;50.820;16.274;2023-02-28T06:09:03;50.10;;;23.80;;
36441;SDS011;64346;50.820;16.274;2023-02-28T06:11:33;51.13;;;24.63;;
36441;SDS011;64346;50.820;16.274;2023-02-28T06:14:01;49.58;;;26.13;;
36441;SDS011;64346;50.820;16.274;2023-02-28T06:16:32;45.78;;;23.88;;
36441;SDS011;64346;50.820;16.274;2023-02-28T06:19:02;43.60;;;21.95;;
36441;SDS011;64346;50.820;16.274;2023-02-28T06:21:33;43.40;;;22.58;;
36441;SDS011;64346;50.820;16.274;2023-02-28T06:24:00;44.67;;;21.02;;
36441;SDS011;64346;50.820;16.274;2023-02-28T06:26:27;42.70;;;22.42;;
36441;SDS011;64346;50.820;16.274;2023-02-28T06:28:55;44.33;;;24.45;;
36441;SDS011;64346;50.820;16.274;2023-02-28T06:31:22;37.35;;;21.17;;
36441;SDS011;64346;50.820;16.274;2023-02-28T06:33:50;39.03;;;23.02;;
36441;SDS011;64346;50.820;16.274;2023-02-28T06:36:17;40.45;;;23.10;;
36441;SDS011;64346;50.820;16.274;2023-02-28T06:38:45;39.45;;;21.23;;
36441;SDS011;64346;50.820;16.274;2023-02-28T06:41:14;40.53;;;20.85;;
36441;SDS011;64346;50.820;16.274;2023-02-28T06:43:42;35.60;;;21.75;;
36441;SDS011;64346;50.820;16.274;2023-02-28T06:46:11;36.72;;;21.15;;
36441;SDS011;64346;50.820;16.274;2023-02-28T06:48:42;37.25;;;20.35;;
36441;SDS011;64346;50.820;16.274;2023-02-28T06:51:11;34.83;;;21.00;;
36441;SDS011;64346;50.820;16.274;2023-02-28T06:53:41;37.92;;;20.13;;
36441;SDS011;64346;50.820;16.274;2023-02-28T06:56:09;36.08;;;19.63;;
36441;SDS011;64346;50.820;16.274;2023-02-28T06:58:39;36.50;;;20.05;;
36441;SDS011;64346;50.820;16.274;2023-02-28T07:01:13;37.83;;;20.65;;
36441;SDS011;64346;50.820;16.274;2023-02-28T07:03:41;34.97;;;19.58;;
36441;SDS011;64346;50.820;16.274;2023-02-28T07:06:08;34.55;;;19.17;;
36441;SDS011;64346;50.820;16.274;2023-02-28T07:08:38;29.67;;;17.73;;
36441;SDS011;64346;50.820;16.274;2023-02-28T07:11:05;29.48;;;18.77;;
36441;SDS011;64346;50.820;16.274;2023-02-28T07:13:33;27.80;;;17.60;;
36441;SDS011;64346;50.820;16.274;2023-02-28T07:16:03;28.10;;;17.30;;
36441;SDS011;64346;50.820;16.274;2023-02-28T07:18:35;28.42;;;18.52;;
36441;SDS011;64346;50.820;16.274;2023-02-28T07:21:07;26.95;;;18.95;;
36441;SDS011;64346;50.820;16.274;2023-02-28T07:23:38;28.45;;;18.30;;
36441;SDS011;64346;50.820;16.274;2023-02-28T07:26:05;26.98;;;17.17;;
36441;SDS011;64346;50.820;16.274;2023-02-28T07:28:38;25.58;;;16.70;;
36441;SDS011;64346;50.820;16.274;2023-02-28T07:31:05;22.30;;;15.07;;
36441;SDS011;64346;50.820;16.274;2023-02-28T07:33:36;26.40;;;17.23;;
36441;SDS011;64346;50.820;16.274;2023-02-28T07:36:05;27.63;;;17.50;;
36441;SDS011;64346;50.820;16.274;2023-02-28T07:38:35;44.50;;;29.67;;
36441;SDS011;64346;50.820;16.274;2023-02-28T07:41:03;29.20;;;20.50;;
36441;SDS011;64346;50.820;16.274;2023-02-28T07:43:31;18.83;;;12.90;;
36441;SDS011;64346;50.820;16.274;2023-02-28T07:46:09;14.88;;;9.45;;
36441;SDS011;64346;50.820;16.274;2023-02-28T07:48:38;14.40;;;8.90;;
36441;SDS011;64346;50.820;16.274;2023-02-28T07:51:05;14.77;;;7.95;;
36441;SDS011;64346;50.820;16.274;2023-02-28T07:53:35;10.48;;;6.45;;
36441;SDS011;64346;50.820;16.274;2023-02-28T07:56:02;11.50;;;7.25;;
36441;SDS011;64346;50.820;16.274;2023-02-28T07:58:30;11.35;;;6.78;;
36441;SDS011;64346;50.820;16.274;2023-02-28T08:01:06;12.40;;;7.05;;
36441;SDS011;64346;50.820;16.274;2023-02-28T08:03:35;10.20;;;6.50;;
36441;SDS011;64346;50.820;16.274;2023-02-28T08:06:07;13.15;;;7.50;;
36441;SDS011;64346;50.820;16.274;2023-02-28T08:08:41;12.55;;;7.40;;
36441;SDS011;64346;50.820;16.274;2023-02-28T08:11:08;12.70;;;7.63;;
36441;SDS011;64346;50.820;16.274;2023-02-28T08:13:41;11.15;;;6.53;;
36441;SDS011;64346;50.820;16.274;2023-02-28T08:16:09;12.95;;;7.53;;
36441;SDS011;64346;50.820;16.274;2023-02-28T08:18:37;10.57;;;6.45;;
36441;SDS011;64346;50.820;16.274;2023-02-28T08:21:07;11.70;;;6.90;;
36441;SDS011;64346;50.820;16.274;2023-02-28T08:23:35;11.43;;;6.95;;
36441;SDS011;64346;50.820;16.274;2023-02-28T08:26:02;11.15;;;6.15;;
36441;SDS011;64346;50.820;16.274;2023-02-28T08:28:30;11.43;;;6.30;;
36441;SDS011;64346;50.820;16.274;2023-02-28T08:31:00;11.18;;;6.75;;
36441;SDS011;64346;50.820;16.274;2023-02-28T08:33:28;10.52;;;5.68;;
36441;SDS011;64346;50.820;16.274;2023-02-28T08:35:55;9.93;;;6.13;;
36441;SDS011;64346;50.820;16.274;2023-02-28T08:38:23;9.43;;;5.63;;
36441;SDS011;64346;50.820;16.274;2023-02-28T08:40:56;10.48;;;5.57;;
36441;SDS011;64346;50.820;16.274;2023-02-28T08:43:31;9.48;;;5.35;;
36441;SDS011;64346;50.820;16.274;2023-02-28T08:45:59;11.07;;;5.75;;
36441;SDS011;64346;50.820;16.274;2023-02-28T08:48:27;8.88;;;5.32;;
36441;SDS011;64346;50.820;16.274;2023-02-28T08:50:57;9.20;;;5.50;;
36441;SDS011;64346;50.820;16.274;2023-02-28T08:53:36;8.75;;;4.82;;
36441;SDS011;64346;50.820;16.274;2023-02-28T08:56:07;9.55;;;5.57;;
36441;SDS011;64346;50.820;16.274;2023-02-28T08:58:39;11.00;;;5.93;;
36441;SDS011;64346;50.820;16.274;2023-02-28T09:03:38;10.80;;;6.38;;
36441;SDS011;64346;50.820;16.274;2023-02-28T09:06:06;10.80;;;6.07;;
36441;SDS011;64346;50.820;16.274;2023-02-28T09:08:35;10.45;;;6.20;;
36441;SDS011;64346;50.820;16.274;2023-02-28T09:11:04;11.70;;;6.90;;
36441;SDS011;64346;50.820;16.274;2023-02-28T09:13:32;10.35;;;6.43;;
36441;SDS011;64346;50.820;16.274;2023-02-28T09:16:00;11.75;;;6.53;;
36441;SDS011;64346;50.820;16.274;2023-02-28T09:18:31;9.80;;;6.20;;
36441;SDS011;64346;50.820;16.274;2023-02-28T09:21:02;9.70;;;6.03;;
36441;SDS011;64346;50.820;16.274;2023-02-28T09:23:34;10.18;;;6.85;;
36441;SDS011;64346;50.820;16.274;2023-02-28T09:26:01;9.73;;;5.75;;
36441;SDS011;64346;50.820;16.274;2023-02-28T09:28:32;9.70;;;5.35;;
36441;SDS011;64346;50.820;16.274;2023-02-28T09:30:59;8.98;;;5.68;;
36441;SDS011;64346;50.820;16.274;2023-02-28T09:33:29;11.75;;;6.60;;
36441;SDS011;64346;50.820;16.274;2023-02-28T09:36:02;10.25;;;6.03;;
36441;SDS011;64346;50.820;16.274;2023-02-28T09:38:30;10.95;;;6.03;;
36441;SDS011;64346;50.820;16.274;2023-02-28T09:41:03;9.07;;;5.80;;
36441;SDS011;64346;50.820;16.274;2023-02-28T09:43:40;8.52;;;5.55;;
36441;SDS011;64346;50.820;16.274;2023-02-28T09:49:14;10.60;;;6.28;;
36441;SDS011;64346;50.820;16.274;2023-02-28T09:54:45;9.60;;;6.18;;
36441;SDS011;64346;50.820;16.274;2023-02-28T09:57:22;9.35;;;6.18;;
36441;SDS011;64346;50.820;16.274;2023-02-28T10:13:53;11.02;;;7.65;;
36441;SDS011;64346;50.820;16.274;2023-02-28T10:16:11;8.85;;;6.25;;
36441;SDS011;64346;50.820;16.274;2023-02-28T10:21:37;11.20;;;8.45;;
36441;SDS011;64346;50.820;16.274;2023-02-28T10:26:45;10.38;;;6.88;;
36441;SDS011;64346;50.820;16.274;2023-02-28T10:29:15;11.13;;;6.55;;
36441;SDS011;64346;50.820;16.274;2023-02-28T10:31:42;9.30;;;6.32;;
36441;SDS011;64346;50.820;16.274;2023-02-28T10:34:12;10.18;;;6.60;;
36441;SDS011;64346;50.820;16.274;2023-02-28T10:36:42;10.40;;;6.68;;
36441;SDS011;64346;50.820;16.274;2023-02-28T10:45:14;10.10;;;7.10;;
36441;SDS011;64346;50.820;16.274;2023-02-28T10:58:56;11.18;;;7.60;;
36441;SDS011;64346;50.820;16.274;2023-02-28T11:01:24;11.88;;;6.72;;
36441;SDS011;64346;50.820;16.274;2023-02-28T11:06:46;10.27;;;7.20;;
36441;SDS011;64346;50.820;16.274;2023-02-28T11:09:18;9.13;;;6.40;;
36441;SDS011;64346;50.820;16.274;2023-02-28T11:12:08;11.02;;;7.47;;
36441;SDS011;64346;50.820;16.274;2023-02-28T11:14:50;10.37;;;6.90;;
36441;SDS011;64346;50.820;16.274;2023-02-28T11:17:32;10.30;;;7.65;;
36441;SDS011;64346;50.820;16.274;2023-02-28T11:20:04;12.15;;;8.20;;
36441;SDS011;64346;50.820;16.274;2023-02-28T11:22:44;11.65;;;7.18;;
36441;SDS011;64346;50.820;16.274;2023-02-28T11:25:24;9.85;;;6.80;;
36441;SDS011;64346;50.820;16.274;2023-02-28T11:27:57;10.13;;;6.82;;
36441;SDS011;64346;50.820;16.274;2023-02-28T11:30:29;15.43;;;8.20;;
36441;SDS011;64346;50.820;16.274;2023-02-28T11:33:40;11.48;;;7.07;;
36441;SDS011;64346;50.820;16.274;2023-02-28T11:36:09;11.13;;;7.38;;
36441;SDS011;64346;50.820;16.274;2023-02-28T11:38:47;11.32;;;7.63;;
36441;SDS011;64346;50.820;16.274;2023-02-28T11:46:49;10.35;;;6.80;;
36441;SDS011;64346;50.820;16.274;2023-02-28T11:52:02;11.70;;;7.80;;
36441;SDS011;64346;50.820;16.274;2023-02-28T12:00:38;13.95;;;9.30;;
36441;SDS011;64346;50.820;16.274;2023-02-28T12:11:34;13.82;;;9.27;;
36441;SDS011;64346;50.820;16.274;2023-02-28T12:19:32;17.70;;;10.98;;
36441;SDS011;64346;50.820;16.274;2023-02-28T12:27:48;15.80;;;10.35;;
36441;SDS011;64346;50.820;16.274;2023-02-28T12:30:22;16.73;;;10.40;;
36441;SDS011;64346;50.820;16.274;2023-02-28T12:33:03;15.35;;;10.18;;
36441;SDS011;64346;50.820;16.274;2023-02-28T12:35:50;19.30;;;11.25;;
36441;SDS011;64346;50.820;16.274;2023-02-28T12:38:27;16.75;;;10.38;;
36441;SDS011;64346;50.820;16.274;2023-02-28T12:41:19;16.02;;;10.15;;
36441;SDS011;64346;50.820;16.274;2023-02-28T12:44:09;15.68;;;9.88;;
36441;SDS011;64346;50.820;16.274;2023-02-28T12:46:55;17.25;;;10.13;;
36441;SDS011;64346;50.820;16.274;2023-02-28T12:49:29;30.63;;;15.50;;
36441;SDS011;64346;50.820;16.274;2023-02-28T12:52:03;23.52;;;13.50;;
36441;SDS011;64346;50.820;16.274;2023-02-28T12:57:07;17.75;;;10.98;;
36441;SDS011;64346;50.820;16.274;2023-02-28T12:59:55;17.55;;;10.48;;
36441;SDS011;64346;50.820;16.274;2023-02-28T13:02:33;16.20;;;10.13;;
36441;SDS011;64346;50.820;16.274;2023-02-28T13:05:31;17.17;;;10.68;;
36441;SDS011;64346;50.820;16.274;2023-02-28T13:11:00;18.45;;;10.60;;
36441;SDS011;64346;50.820;16.274;2023-02-28T13:13:33;18.10;;;11.25;;
36441;SDS011;64346;50.820;16.274;2023-02-28T13:18:39;19.98;;;11.32;;
36441;SDS011;64346;50.820;16.274;2023-02-28T13:21:29;20.10;;;11.55;;
36441;SDS011;64346;50.820;16.274;2023-02-28T13:24:01;18.15;;;12.18;;
36441;SDS011;64346;50.820;16.274;2023-02-28T13:29:00;20.17;;;12.90;;
36441;SDS011;64346;50.820;16.274;2023-02-28T13:31:31;22.00;;;12.05;;
36441;SDS011;64346;50.820;16.274;2023-02-28T13:39:00;19.52;;;11.25;;
36441;SDS011;64346;50.820;16.274;2023-02-28T13:41:48;17.27;;;10.60;;
36441;SDS011;64346;50.820;16.274;2023-02-28T13:49:26;18.95;;;12.32;;
36441;SDS011;64346;50.820;16.274;2023-02-28T13:52:02;20.27;;;12.10;;
36441;SDS011;64346;50.820;16.274;2023-02-28T13:57:14;19.13;;;11.45;;
36441;SDS011;64346;50.820;16.274;2023-02-28T14:02:51;22.15;;;12.55;;
36441;SDS011;64346;50.820;16.274;2023-02-28T14:05:24;25.15;;;14.50;;
36441;SDS011;64346;50.820;16.274;2023-02-28T14:08:14;20.33;;;12.75;;
36441;SDS011;64346;50.820;16.274;2023-02-28T14:11:02;21.10;;;12.88;;
36441;SDS011;64346;50.820;16.274;2023-02-28T14:16:08;25.33;;;16.30;;
36441;SDS011;64346;50.820;16.274;2023-02-28T14:18:36;23.60;;;13.85;;
36441;SDS011;64346;50.820;16.274;2023-02-28T14:32:10;23.98;;;14.82;;
36441;SDS011;64346;50.820;16.274;2023-02-28T14:37:15;22.20;;;12.60;;
36441;SDS011;64346;50.820;16.274;2023-02-28T14:39:46;24.33;;;14.82;;
36441;SDS011;64346;50.820;16.274;2023-02-28T14:42:31;24.98;;;15.48;;
36441;SDS011;64346;50.820;16.274;2023-02-28T14:45:02;25.63;;;16.23;;
36441;SDS011;64346;50.820;16.274;2023-02-28T14:47:31;23.17;;;14.43;;
36441;SDS011;64346;50.820;16.274;2023-02-28T14:50:03;22.88;;;14.98;;
36441;SDS011;64346;50.820;16.274;2023-02-28T14:52:34;22.08;;;14.50;;
36441;SDS011;64346;50.820;16.274;2023-02-28T14:55:05;23.55;;;14.02;;
36441;SDS011;64346;50.820;16.274;2023-02-28T14:57:39;25.88;;;15.50;;
36441;SDS011;64346;50.820;16.274;2023-02-28T15:00:30;23.83;;;14.88;;
36441;SDS011;64346;50.820;16.274;2023-02-28T15:03:13;22.13;;;15.00;;
36441;SDS011;64346;50.820;16.274;2023-02-28T15:05:53;26.23;;;15.43;;
36441;SDS011;64346;50.820;16.274;2023-02-28T15:08:24;24.42;;;15.20;;
36441;SDS011;64346;50.820;16.274;2023-02-28T15:10:59;22.95;;;14.82;;
36441;SDS011;64346;50.820;16.274;2023-02-28T15:13:46;26.58;;;16.08;;
36441;SDS011;64346;50.820;16.274;2023-02-28T15:18:49;27.02;;;16.40;;
36441;SDS011;64346;50.820;16.274;2023-02-28T15:21:32;27.38;;;16.25;;
36441;SDS011;64346;50.820;16.274;2023-02-28T15:26:59;26.48;;;16.50;;
36441;SDS011;64346;50.820;16.274;2023-02-28T15:29:34;26.20;;;17.00;;
36441;SDS011;64346;50.820;16.274;2023-02-28T15:32:47;27.88;;;17.10;;
36441;SDS011;64346;50.820;16.274;2023-02-28T15:37:57;33.50;;;19.73;;
36441;SDS011;64346;50.820;16.274;2023-02-28T15:48:30;28.30;;;16.75;;
36441;SDS011;64346;50.820;16.274;2023-02-28T15:51:07;28.98;;;16.60;;
36441;SDS011;64346;50.820;16.274;2023-02-28T15:53:44;28.55;;;17.00;;
36441;SDS011;64346;50.820;16.274;2023-02-28T15:56:20;25.15;;;15.27;;
36441;SDS011;64346;50.820;16.274;2023-02-28T15:58:48;30.73;;;17.80;;
36441;SDS011;64346;50.820;16.274;2023-02-28T16:01:18;28.08;;;16.70;;
36441;SDS011;64346;50.820;16.274;2023-02-28T16:03:51;28.13;;;17.33;;
36441;SDS011;64346;50.820;16.274;2023-02-28T16:06:43;33.63;;;17.17;;
36441;SDS011;64346;50.820;16.274;2023-02-28T16:09:14;28.58;;;16.05;;
36441;SDS011;64346;50.820;16.274;2023-02-28T16:11:44;28.70;;;17.25;;
36441;SDS011;64346;50.820;16.274;2023-02-28T16:14:17;28.45;;;16.42;;
36441;SDS011;64346;50.820;16.274;2023-02-28T16:16:48;26.92;;;15.32;;
36441;SDS011;64346;50.820;16.274;2023-02-28T16:19:17;26.10;;;15.75;;
36441;SDS011;64346;50.820;16.274;2023-02-28T16:21:45;30.17;;;15.63;;
36441;SDS011;64346;50.820;16.274;2023-02-28T16:24:13;24.42;;;14.13;;
36441;SDS011;64346;50.820;16.274;2023-02-28T16:26:40;27.20;;;14.80;;
36441;SDS011;64346;50.820;16.274;2023-02-28T16:29:18;28.75;;;15.45;;
36441;SDS011;64346;50.820;16.274;2023-02-28T16:31:53;26.30;;;15.15;;
36441;SDS011;64346;50.820;16.274;2023-02-28T16:34:23;26.85;;;15.15;;
36441;SDS011;64346;50.820;16.274;2023-02-28T16:36:52;27.75;;;15.10;;
36441;SDS011;64346;50.820;16.274;2023-02-28T16:39:19;26.65;;;16.20;;
36441;SDS011;64346;50.820;16.274;2023-02-28T16:41:47;27.15;;;15.85;;
36441;SDS011;64346;50.820;16.274;2023-02-28T16:44:28;26.80;;;15.68;;
36441;SDS011;64346;50.820;16.274;2023-02-28T16:47:01;27.38;;;15.55;;
36441;SDS011;64346;50.820;16.274;2023-02-28T16:49:30;32.20;;;15.95;;
36441;SDS011;64346;50.820;16.274;2023-02-28T16:52:00;27.33;;;15.18;;
36441;SDS011;64346;50.820;16.274;2023-02-28T16:54:29;28.88;;;15.98;;
36441;SDS011;64346;50.820;16.274;2023-02-28T16:56:57;31.45;;;16.95;;
36441;SDS011;64346;50.820;16.274;2023-02-28T16:59:24;30.27;;;16.88;;
36441;SDS011;64346;50.820;16.274;2023-02-28T17:01:54;30.15;;;17.38;;
36441;SDS011;64346;50.820;16.274;2023-02-28T17:04:22;31.60;;;17.95;;
36441;SDS011;64346;50.820;16.274;2023-02-28T17:06:53;31.63;;;17.63;;
36441;SDS011;64346;50.820;16.274;2023-02-28T17:09:27;29.55;;;17.73;;
36441;SDS011;64346;50.820;16.274;2023-02-28T17:12:34;30.60;;;18.40;;
36441;SDS011;64346;50.820;16.274;2023-02-28T17:15:01;32.88;;;17.95;;
36441;SDS011;64346;50.820;16.274;2023-02-28T17:17:31;32.72;;;19.08;;
36441;SDS011;64346;50.820;16.274;2023-02-28T17:20:14;31.25;;;17.95;;
36441;SDS011;64346;50.820;16.274;2023-02-28T17:22:45;49.95;;;27.42;;
36441;SDS011;64346;50.820;16.274;2023-02-28T17:25:14;94.47;;;46.70;;
36441;SDS011;64346;50.820;16.274;2023-02-28T17:27:45;51.45;;;27.98;;
36441;SDS011;64346;50.820;16.274;2023-02-28T17:32:44;34.30;;;18.52;;
36441;SDS011;64346;50.820;16.274;2023-02-28T17:35:11;33.05;;;18.23;;
36441;SDS011;64346;50.820;16.274;2023-02-28T17:37:40;29.42;;;16.48;;
36441;SDS011;64346;50.820;16.274;2023-02-28T17:40:12;29.70;;;16.25;;
36441;SDS011;64346;50.820;16.274;2023-02-28T17:42:42;33.15;;;17.85;;
36441;SDS011;64346;50.820;16.274;2023-02-28T17:45:10;37.72;;;18.67;;